Time;durP1;ratioP1;P1;durP2;ratioP2;P2;SDS_P1;SDS_P2;PMS_P1;PMS_P2;Temp;Humidity;BMP_temperature;BMP_pressure;BME280_temperature;BME280_humidity;BME280_pressure;Samples;Min_cycle;Max_cycle;Signal;HPM_P1;HPM_P2
2022/07/03 00:00:40;;;;;;;19.57;15.67;;;28.20;57.50;;;;;;4994770;28;20034;-52
2022/07/03 00:03:06;;;;;;;22.47;16.23;;;28.20;57.70;;;;;;5018819;22;20064;-55
2022/07/03 00:05:32;;;;;;;20.50;16.00;;;28.20;57.80;;;;;;4994988;28;20044;-54
2022/07/03 00:07:58;;;;;;;17.63;14.53;;;28.10;57.90;;;;;;4995849;28;20026;-54
2022/07/03 00:10:23;;;;;;;17.80;16.00;;;28.00;58.10;;;;;;5010358;28;20513;-58
2022/07/03 00:12:49;;;;;;;19.57;16.07;;;28.00;58.30;;;;;;4994680;28;20458;-55
2022/07/03 00:15:15;;;;;;;20.27;18.03;;;28.00;58.40;;;;;;4994693;28;20438;-56
2022/07/03 00:17:40;;;;;;;19.57;17.40;;;27.90;58.40;;;;;;4994404;28;20398;-53
2022/07/03 00:20:07;;;;;;;19.73;17.27;;;28.00;58.60;;;;;;4994104;28;20108;-54
2022/07/03 00:22:36;;;;;;;20.30;17.65;;;27.90;58.60;;;;;;4994583;28;20015;-53
2022/07/03 00:25:05;;;;;;;25.00;18.55;;;27.90;58.90;;;;;;4994512;28;20030;-54
2022/07/03 00:27:33;;;;;;;21.30;17.95;;;27.80;59.10;;;;;;4994189;28;20030;-58
2022/07/03 00:30:00;;;;;;;21.52;18.13;;;27.80;59.30;;;;;;4994445;28;20032;-56
2022/07/03 00:32:27;;;;;;;25.20;16.95;;;27.80;59.40;;;;;;4993678;28;20030;-55
2022/07/03 00:34:54;;;;;;;;;;;27.90;59.20;;;;;;4994481;28;20037;-56
2022/07/03 00:37:20;;;;;;;23.77;17.52;;;27.90;59.90;;;;;;4992781;28;20374;-53
2022/07/03 00:39:50;;;;;;;20.30;16.85;;;27.90;59.00;;;;;;4992804;28;20057;-54
2022/07/03 00:42:17;;;;;;;22.67;17.52;;;28.00;59.60;;;;;;4994283;28;20105;-56
2022/07/03 00:44:52;;;;;;;;;;;28.00;60.00;;;;;;4994535;28;20022;-52
2022/07/03 00:47:21;;;;;;;29.08;19.05;;;27.90;60.70;;;;;;4993435;28;19936;-53
2022/07/03 00:49:48;;;;;;;22.23;18.05;;;27.90;60.40;;;;;;4991722;28;20030;-52
2022/07/03 00:52:17;;;;;;;25.65;18.20;;;27.90;60.60;;;;;;4993513;28;20035;-54
2022/07/03 00:54:57;;;;;;;22.80;17.90;;;27.80;60.70;;;;;;4993921;28;20467;-56
2022/07/03 00:57:26;;;;;;;21.00;18.90;;;27.80;61.20;;;;;;4974420;28;20031;-52
2022/07/03 00:59:52;;;;;;;19.80;17.52;;;27.80;61.00;;;;;;4990147;28;20602;-58
2022/07/03 01:02:40;;;;;;;24.98;19.35;;;27.70;61.10;;;;;;4993295;28;20372;-56
2022/07/03 01:05:30;;;;;;;31.70;22.10;;;27.70;61.00;;;;;;4991178;28;20038;-55
2022/07/03 01:08:05;;;;;;;31.50;20.08;;;27.60;60.70;;;;;;4983703;28;20084;-57
2022/07/03 10:51:13;;;;;;;15.55;5.28;;;33.30;46.90;;;;;;1477738;26;20045;-56
2022/07/03 10:53:39;;;;;;;11.13;5.60;;;33.40;45.80;;;;;;5081158;28;20032;-59
2022/07/03 10:56:05;;;;;;;12.13;4.80;;;33.50;46.50;;;;;;5085740;28;20032;-59
2022/07/03 10:58:31;;;;;;;8.32;5.38;;;33.60;46.40;;;;;;5089293;28;20038;-59
2022/07/03 11:00:58;;;;;;;12.38;4.72;;;33.80;47.00;;;;;;5091025;28;20392;-57
2022/07/03 11:03:55;;;;;;;11.55;4.72;;;33.80;47.60;;;;;;5109097;22;20045;-50
2022/07/03 11:06:42;;;;;;;13.68;5.95;;;34.00;46.00;;;;;;5050255;28;20052;-50
2022/07/03 11:09:15;;;;;;;12.20;6.22;;;34.00;46.70;;;;;;5049935;28;20112;-50
2022/07/03 11:11:56;;;;;;;12.40;5.45;;;34.10;46.80;;;;;;5049728;28;20040;-50
2022/07/03 11:14:23;;;;;;;17.63;7.05;;;34.10;47.10;;;;;;5051711;28;20435;-49
2022/07/03 11:16:49;;;;;;;9.07;5.57;;;34.10;45.60;;;;;;5051251;28;20033;-50
2022/07/03 11:19:25;;;;;;;15.30;6.47;;;34.00;45.50;;;;;;5049196;28;20025;-51
2022/07/03 11:21:57;;;;;;;14.10;4.75;;;34.10;44.90;;;;;;5044797;28;20035;-51
2022/07/03 11:24:36;;;;;;;7.35;4.57;;;34.10;45.90;;;;;;5056628;28;20017;-50
2022/07/03 11:27:18;;;;;;;9.27;4.82;;;34.20;45.70;;;;;;5058026;28;20431;-51
2022/07/03 11:29:50;;;;;;;12.18;4.90;;;34.20;43.60;;;;;;5046080;28;20047;-52
2022/07/03 11:32:49;;;;;;;9.95;5.28;;;34.30;42.70;;;;;;5042828;28;20033;-51
2022/07/03 11:35:44;;;;;;;10.23;4.60;;;34.40;42.60;;;;;;5043148;28;20469;-50
2022/07/03 11:38:10;;;;;;;10.00;4.78;;;34.50;44.40;;;;;;5050823;28;20144;-50
2022/07/03 11:40:41;;;;;;;12.35;4.88;;;34.60;42.50;;;;;;5050611;28;20021;-49
2022/07/03 11:43:06;;;;;;;8.45;4.35;;;34.70;41.60;;;;;;5050437;28;20029;-49
2022/07/03 11:45:32;;;;;;;7.55;4.70;;;34.80;42.00;;;;;;5050675;28;20025;-52
2022/07/03 11:47:58;;;;;;;10.80;4.05;;;34.80;41.90;;;;;;5051085;28;20029;-50
2022/07/03 11:50:41;;;;;;;17.20;7.55;;;34.80;41.70;;;;;;5053717;28;20017;-50
2022/07/03 11:53:23;;;;;;;7.28;4.03;;;34.90;40.00;;;;;;5054132;28;20025;-50
2022/07/03 11:55:56;;;;;;;8.68;4.32;;;35.00;40.40;;;;;;5054294;28;20064;-50
2022/07/03 11:58:22;;;;;;;9.18;4.15;;;35.00;40.40;;;;;;5054478;28;20036;-51
2022/07/03 12:00:48;;;;;;;7.88;3.72;;;35.10;41.10;;;;;;5054158;28;20500;-50
2022/07/03 12:03:15;;;;;;;11.60;3.83;;;35.20;42.20;;;;;;5053904;28;20028;-49
2022/07/03 12:05:51;;;;;;;6.82;4.07;;;35.40;41.20;;;;;;5053949;28;20083;-50
2022/07/03 12:08:27;;;;;;;13.27;5.03;;;35.60;40.80;;;;;;5054480;28;20536;-51
2022/07/03 12:11:06;;;;;;;11.35;5.35;;;35.60;40.30;;;;;;5053872;28;20328;-51
2022/07/03 12:13:33;;;;;;;10.93;5.43;;;35.50;40.50;;;;;;5053861;28;20029;-49
2022/07/03 12:16:09;;;;;;;11.27;5.10;;;35.50;41.50;;;;;;5052674;28;20033;-52
2022/07/03 12:18:53;;;;;;;5.90;3.67;;;35.60;41.40;;;;;;5054014;28;20111;-53
2022/07/03 12:21:23;;;;;;;12.20;3.90;;;35.70;40.70;;;;;;5054129;28;20489;-53
2022/07/03 12:23:53;;;;;;;10.68;4.78;;;35.90;40.60;;;;;;5052887;28;20033;-51
2022/07/03 12:26:31;;;;;;;13.45;4.60;;;35.90;39.10;;;;;;5053930;28;20544;-50
2022/07/03 12:29:00;;;;;;;11.20;4.28;;;35.90;39.40;;;;;;5053662;28;20033;-50
2022/07/03 12:31:28;;;;;;;8.90;4.05;;;35.80;38.30;;;;;;5033765;28;20401;-51
2022/07/03 12:33:54;;;;;;;12.65;5.70;;;35.80;39.20;;;;;;5053337;28;20031;-49
2022/07/03 12:36:20;;;;;;;5.90;4.20;;;35.90;38.90;;;;;;5053702;28;20029;-49
2022/07/03 12:38:51;;;;;;;9.55;4.68;;;35.90;38.40;;;;;;5053756;28;20106;-50
2022/07/03 12:41:17;;;;;;;8.95;4.43;;;35.90;38.00;;;;;;5053356;28;20035;-50
2022/07/03 12:43:46;;;;;;;8.63;4.47;;;36.00;38.40;;;;;;5052034;28;20029;-52
2022/07/03 12:46:25;;;;;;;12.02;5.75;;;36.10;39.30;;;;;;5052397;28;20029;-50
2022/07/03 12:48:52;;;;;;;14.50;4.65;;;36.30;39.30;;;;;;5053281;28;20064;-51
2022/07/03 12:51:42;;;;;;;8.30;4.57;;;36.30;39.30;;;;;;5051488;28;20033;-49
2022/07/03 12:54:10;;;;;;;8.95;5.30;;;36.50;38.40;;;;;;5053263;28;20036;-51
2022/07/03 12:56:37;;;;;;;9.70;4.28;;;36.40;38.10;;;;;;5051790;28;20033;-50
2022/07/03 12:59:18;;;;;;;8.30;4.03;;;36.40;39.00;;;;;;5053356;28;20033;-50
2022/07/03 13:02:03;;;;;;;9.27;4.20;;;36.40;37.50;;;;;;5052518;28;20033;-51
2022/07/03 13:04:34;;;;;;;9.40;4.20;;;36.60;37.20;;;;;;5053116;28;20025;-52
2022/07/03 13:07:05;;;;;;;6.13;4.75;;;36.70;36.90;;;;;;5052999;28;20029;-50
2022/07/03 13:09:30;;;;;;;8.95;4.40;;;36.80;36.50;;;;;;5053059;28;20025;-50
2022/07/03 13:11:57;;;;;;;11.45;3.75;;;36.80;36.30;;;;;;5052557;28;20040;-50
2022/07/03 13:14:24;;;;;;;13.25;3.88;;;36.80;36.80;;;;;;5052973;28;20530;-50
2022/07/03 13:16:52;;;;;;;9.35;3.67;;;37.00;37.00;;;;;;5051278;28;20037;-50
2022/07/03 13:19:25;;;;;;;7.97;4.03;;;37.20;36.30;;;;;;5052978;28;20049;-50
2022/07/03 13:21:54;;;;;;;9.38;3.70;;;37.40;37.00;;;;;;5052463;28;20037;-49
2022/07/03 13:24:20;;;;;;;10.18;3.33;;;37.60;36.50;;;;;;5052769;28;20125;-50
2022/07/03 13:26:47;;;;;;;9.45;4.03;;;38.10;36.70;;;;;;5050887;28;20544;-51
2022/07/03 13:29:13;;;;;;;10.05;4.28;;;39.00;35.90;;;;;;5052779;28;20052;-50
2022/07/03 13:31:39;;;;;;;7.88;4.05;;;40.20;33.60;;;;;;5051894;28;20060;-50
2022/07/03 13:34:05;;;;;;;10.27;3.80;;;;;;;;;;5052649;28;20024;-53
2022/07/03 13:36:32;;;;;;;7.45;3.17;;;;;;;;;;5052218;28;20104;-50
2022/07/03 13:38:58;;;;;;;6.15;3.25;;;41.40;32.20;;;;;;5052412;28;20032;-51
2022/07/03 13:41:24;;;;;;;6.80;3.50;;;43.90;28.90;;;;;;5052284;28;20029;-50
2022/07/03 13:43:50;;;;;;;7.13;3.47;;;44.70;28.50;;;;;;5051669;28;20021;-51
2022/07/03 13:46:17;;;;;;;6.95;3.35;;;45.70;27.20;;;;;;5052089;28;20064;-50
2022/07/03 13:48:43;;;;;;;5.57;3.45;;;46.10;26.30;;;;;;5052045;28;20067;-52
2022/07/03 13:51:09;;;;;;;7.35;3.47;;;46.40;26.30;;;;;;5051923;28;20029;-51
2022/07/03 13:53:35;;;;;;;7.28;3.50;;;47.00;26.20;;;;;;5051755;28;20335;-50
2022/07/03 13:56:01;;;;;;;5.72;3.50;;;47.60;25.90;;;;;;5051784;28;20043;-50
2022/07/03 13:58:27;;;;;;;10.65;3.60;;;48.20;25.40;;;;;;5052026;28;20393;-51
2022/07/03 14:00:54;;;;;;;10.25;4.20;;;48.60;25.90;;;;;;5051473;28;20032;-59
2022/07/03 14:03:20;;;;;;;9.27;4.35;;;48.50;25.70;;;;;;5051130;28;20028;-56
2022/07/03 14:05:45;;;;;;;7.00;3.75;;;48.10;25.60;;;;;;5051913;28;20023;-56
2022/07/03 14:08:12;;;;;;;9.45;3.95;;;;;;;;;;5052091;28;20036;-59
2022/07/03 14:10:38;;;;;;;10.50;3.92;;;48.00;26.20;;;;;;5051348;28;20060;-58
2022/07/03 14:13:05;;;;;;;10.70;3.92;;;49.40;25.30;;;;;;5050964;28;20163;-59
2022/07/03 14:15:32;;;;;;;8.00;3.47;;;49.70;25.30;;;;;;5051547;28;20029;-56
2022/07/03 14:17:59;;;;;;;5.05;3.15;;;50.10;25.20;;;;;;5051108;28;20118;-55
2022/07/03 14:20:26;;;;;;;6.20;3.40;;;50.40;24.80;;;;;;5050480;28;20123;-56
2022/07/03 14:22:52;;;;;;;7.05;3.55;;;51.10;25.00;;;;;;5051809;28;20044;-56
2022/07/03 14:25:17;;;;;;;10.05;4.90;;;51.70;24.10;;;;;;5051283;28;20107;-56
2022/07/03 14:33:13;;;;;;;;;;;51.20;24.10;;;;;;5051831;28;20053;-56
2022/07/03 14:35:39;;;;;;;5.45;3.35;;;51.10;24.00;;;;;;5051033;28;19924;-55
2022/07/03 14:38:05;;;;;;;9.88;3.40;;;51.70;24.00;;;;;;5051358;28;20124;-55
2022/07/03 14:40:31;;;;;;;8.13;3.70;;;52.50;23.80;;;;;;5048412;28;20029;-55
2022/07/03 14:42:57;;;;;;;10.20;3.45;;;52.50;23.50;;;;;;5056968;28;20119;-54
2022/07/03 14:45:24;;;;;;;6.38;3.42;;;52.70;23.90;;;;;;5071476;28;20532;-56
2022/07/03 14:47:50;;;;;;;8.27;3.67;;;53.00;24.20;;;;;;5056982;28;20027;-55
2022/07/03 14:50:16;;;;;;;7.43;3.40;;;53.40;24.20;;;;;;5054649;28;20017;-55
2022/07/03 14:52:42;;;;;;;5.88;3.40;;;53.40;23.90;;;;;;5071376;28;20024;-56
2022/07/03 14:55:08;;;;;;;6.35;3.08;;;53.40;23.90;;;;;;5061379;28;20029;-56
2022/07/03 14:57:47;;;;;;;15.73;3.85;;;53.00;23.90;;;;;;5040817;28;20025;-52
2022/07/03 15:00:15;;;;;;;5.38;2.90;;;51.80;24.20;;;;;;5042906;28;20042;-54
2022/07/03 15:03:08;;;;;;;7.38;3.17;;;50.20;25.00;;;;;;5044165;28;20029;-53
2022/07/03 15:05:40;;;;;;;5.38;2.95;;;48.80;25.70;;;;;;5030028;28;20047;-56
2022/07/03 15:08:21;;;;;;;7.82;2.95;;;47.30;26.20;;;;;;5030243;28;20032;-55
2022/07/03 15:10:46;;;;;;;11.80;3.30;;;46.20;27.10;;;;;;5040700;28;20032;-55
2022/07/03 15:13:14;;;;;;;8.02;3.33;;;;;;;;;;5051282;28;20033;-55
2022/07/03 15:15:42;;;;;;;8.10;3.60;;;44.90;27.70;;;;;;5050639;28;20027;-52
2022/07/03 15:18:10;;;;;;;9.90;3.83;;;42.90;29.50;;;;;;5049986;28;20127;-56
2022/07/03 15:20:37;;;;;;;6.90;3.55;;;;;;;;;;5054016;28;20039;-56
2022/07/03 15:23:06;;;;;;;10.05;3.90;;;41.80;30.10;;;;;;5069687;28;20024;-59
2022/07/03 15:25:35;;;;;;;10.82;3.72;;;41.60;30.80;;;;;;5048909;28;20497;-54
2022/07/03 15:28:01;;;;;;;11.63;3.08;;;41.30;30.50;;;;;;5044084;28;20326;-53
2022/07/03 15:30:27;;;;;;;13.10;3.63;;;41.00;31.20;;;;;;5043186;28;20021;-52
2022/07/03 15:32:58;;;;;;;7.22;3.42;;;40.60;31.10;;;;;;5044583;28;20021;-55
2022/07/03 15:35:26;;;;;;;8.38;3.00;;;40.50;32.00;;;;;;5045350;28;20048;-53
2022/07/03 15:37:57;;;;;;;8.50;3.38;;;;;;;;;;5053475;28;20393;-52
2022/07/03 15:40:30;;;;;;;6.80;3.60;;;40.20;31.90;;;;;;5047396;28;20107;-52
2022/07/03 15:43:04;;;;;;;4.63;3.38;;;40.10;31.90;;;;;;5054621;28;20036;-52
2022/07/03 15:45:35;;;;;;;6.97;3.65;;;39.90;32.20;;;;;;5052950;28;20017;-55
2022/07/03 15:48:34;;;;;;;10.00;3.55;;;39.70;32.30;;;;;;5045881;28;20409;-55
2022/07/03 15:51:09;;;;;;;8.38;3.60;;;39.70;32.20;;;;;;5047633;28;20029;-52
2022/07/03 15:53:39;;;;;;;22.45;5.10;;;39.50;32.30;;;;;;5046923;28;20037;-52
2022/07/03 15:56:08;;;;;;;165.60;15.25;;;39.30;32.50;;;;;;5047860;28;20536;-54
2022/07/03 15:58:38;;;;;;;10.23;3.97;;;39.20;32.90;;;;;;5045389;28;20490;-53
2022/07/03 16:04:03;;;;;;;6.65;3.10;;;39.10;31.60;;;;;;5035048;28;20524;-52
2022/07/03 16:06:30;;;;;;;7.28;3.05;;;39.00;31.90;;;;;;5034474;28;20017;-52
2022/07/03 16:08:56;;;;;;;6.78;3.00;;;39.00;31.90;;;;;;5040115;28;20028;-56
2022/07/03 16:11:21;;;;;;;;;;;39.00;32.40;;;;;;5054100;28;20107;-56
2022/07/03 16:13:54;;;;;;;7.30;3.83;;;38.90;33.70;;;;;;5046072;28;19909;-55
2022/07/03 16:16:21;;;;;;;7.05;3.28;;;38.90;34.80;;;;;;5046203;28;20028;-55
2022/07/03 16:18:50;;;;;;;11.57;3.30;;;38.80;35.20;;;;;;5055509;28;20097;-56
2022/07/03 16:21:19;;;;;;;9.93;3.33;;;38.90;35.40;;;;;;5058170;28;20039;-56
2022/07/03 16:23:46;;;;;;;8.77;3.80;;;38.80;35.10;;;;;;5054016;28;20048;-55
2022/07/03 16:26:13;;;;;;;13.23;3.80;;;38.80;35.00;;;;;;5046489;28;20025;-57
2022/07/03 16:28:39;;;;;;;13.73;3.97;;;38.70;35.60;;;;;;5053530;28;20021;-54
2022/07/03 16:31:08;;;;;;;21.88;4.15;;;38.70;36.00;;;;;;5051643;28;20032;-54
2022/07/03 16:33:36;;;;;;;12.88;3.63;;;38.70;37.00;;;;;;5053475;28;20087;-56
2022/07/03 16:36:10;;;;;;;6.90;3.33;;;38.60;37.20;;;;;;5053483;28;20028;-55
2022/07/03 16:39:01;;;;;;;9.90;4.07;;;38.60;37.80;;;;;;5053250;28;20492;-56
2022/07/03 16:41:33;;;;;;;11.48;3.28;;;38.50;37.30;;;;;;5053142;28;20040;-57
2022/07/03 16:44:02;;;;;;;10.10;3.92;;;38.50;37.90;;;;;;5053397;28;20021;-54
2022/07/03 16:46:28;;;;;;;8.15;4.05;;;38.40;38.00;;;;;;5053627;28;20123;-56
2022/07/03 16:48:56;;;;;;;9.18;4.63;;;38.30;38.70;;;;;;5052430;28;20023;-56
2022/07/03 16:51:27;;;;;;;21.38;4.78;;;38.30;38.70;;;;;;5053339;28;20033;-56
2022/07/03 16:53:54;;;;;;;13.45;3.88;;;38.30;38.40;;;;;;5053615;28;20028;-56
2022/07/03 16:56:20;;;;;;;9.90;3.58;;;38.20;38.30;;;;;;5053538;28;20037;-57
2022/07/03 16:58:45;;;;;;;;;;;38.20;37.70;;;;;;5053904;28;20032;-54
2022/07/03 17:01:12;;;;;;;10.60;3.50;;;38.00;37.70;;;;;;5053079;28;19918;-54
2022/07/03 17:03:39;;;;;;;7.32;2.78;;;38.00;38.40;;;;;;5093593;22;20040;-63
2022/07/03 17:06:06;;;;;;;5.65;3.35;;;38.00;37.50;;;;;;5093246;28;20030;-63
2022/07/03 17:08:34;;;;;;;7.88;3.45;;;38.00;37.50;;;;;;5093286;28;20031;-63
2022/07/03 17:11:00;;;;;;;5.82;2.58;;;37.90;37.50;;;;;;5093175;28;20524;-63
2022/07/03 17:13:26;;;;;;;9.38;3.15;;;37.80;37.90;;;;;;5093295;28;20111;-63
2022/07/03 17:15:54;;;;;;;5.93;3.42;;;37.80;38.10;;;;;;5093261;28;20028;-63
2022/07/03 17:18:44;;;;;;;6.30;3.22;;;37.80;37.90;;;;;;5093213;28;20074;-63
2022/07/03 17:21:15;;;;;;;11.88;3.70;;;37.70;38.20;;;;;;5092517;28;20052;-63
2022/07/03 17:23:44;;;;;;;15.27;3.63;;;37.60;38.60;;;;;;5086504;28;20370;-63
2022/07/03 17:26:17;;;;;;;21.25;3.65;;;37.60;38.90;;;;;;5088885;28;20060;-63
2022/07/03 17:28:48;;;;;;;6.75;3.38;;;37.50;38.70;;;;;;5082344;28;20054;-63
2022/07/03 17:31:16;;;;;;;5.75;2.90;;;37.50;38.80;;;;;;5081339;28;20107;-63
2022/07/03 17:33:50;;;;;;;5.63;3.03;;;37.50;38.60;;;;;;5083287;28;20031;-63
2022/07/03 17:36:21;;;;;;;7.55;3.33;;;37.40;38.70;;;;;;5082863;28;20034;-63
2022/07/03 17:38:51;;;;;;;11.48;4.38;;;37.30;39.20;;;;;;5083998;28;20558;-63
2022/07/03 17:41:21;;;;;;;6.50;3.63;;;37.30;40.30;;;;;;5083370;28;20032;-63
2022/07/03 17:43:48;;;;;;;6.28;3.08;;;37.20;40.60;;;;;;5090533;28;20024;-63
2022/07/03 17:46:15;;;;;;;7.10;3.10;;;37.10;40.20;;;;;;5072237;28;20056;-63
2022/07/03 17:48:42;;;;;;;7.78;4.03;;;37.00;40.60;;;;;;5062639;28;20043;-63
2022/07/03 17:51:16;;;;;;;5.55;3.45;;;37.00;40.80;;;;;;5092176;28;20039;-63
2022/07/03 17:53:47;;;;;;;5.00;3.97;;;36.90;40.90;;;;;;5092434;28;20062;-63
2022/07/03 17:56:15;;;;;;;6.45;3.28;;;36.80;41.30;;;;;;5092392;28;20032;-63
2022/07/03 17:58:43;;;;;;;6.00;3.10;;;36.70;41.70;;;;;;5092326;28;20396;-63
2022/07/03 18:01:09;;;;;;;8.23;3.20;;;36.60;41.90;;;;;;5081847;28;20032;-63
2022/07/03 18:03:35;;;;;;;17.48;3.90;;;36.50;41.90;;;;;;5089195;28;20161;-63
2022/07/03 18:06:03;;;;;;;16.73;3.22;;;36.40;42.10;;;;;;5073738;28;20110;-63
2022/07/03 18:08:37;;;;;;;11.35;3.20;;;36.30;42.30;;;;;;5085002;28;20058;-63
2022/07/03 18:11:13;;;;;;;9.55;3.72;;;36.20;42.20;;;;;;5090311;28;20073;-63
2022/07/03 18:14:04;;;;;;;10.18;3.42;;;36.10;42.70;;;;;;5091468;28;20546;-63
2022/07/03 18:16:36;;;;;;;33.42;4.75;;;36.00;43.10;;;;;;5072240;28;20439;-62
2022/07/03 18:19:02;;;;;;;12.30;3.40;;;35.90;43.40;;;;;;5071851;28;20143;-63
2022/07/03 18:21:30;;;;;;;6.57;3.50;;;35.70;43.60;;;;;;5084633;28;20524;-63
2022/07/03 18:23:57;;;;;;;7.70;3.53;;;35.60;43.40;;;;;;5084256;28;20032;-63
2022/07/03 18:26:41;;;;;;;8.57;4.28;;;35.60;43.50;;;;;;5087776;28;20454;-63
2022/07/03 18:29:08;;;;;;;12.48;4.57;;;35.60;43.70;;;;;;5071739;28;20107;-63
2022/07/03 18:31:34;;;;;;;8.57;3.40;;;35.40;43.40;;;;;;5050886;28;20142;-63
2022/07/03 18:34:00;;;;;;;;;;;35.30;43.30;;;;;;5075191;28;20025;-63
2022/07/03 18:36:29;;;;;;;5.72;3.53;;;35.20;43.10;;;;;;5086834;28;19979;-62
2022/07/03 18:38:58;;;;;;;6.18;3.10;;;35.10;43.40;;;;;;5088401;28;20028;-62
2022/07/03 18:41:27;;;;;;;9.52;3.92;;;35.10;43.40;;;;;;5081282;28;20488;-62
2022/07/03 18:43:55;;;;;;;7.70;3.50;;;35.00;44.00;;;;;;5072480;28;20016;-62
2022/07/03 18:46:22;;;;;;;9.70;3.85;;;35.00;44.20;;;;;;5073639;28;20016;-62
2022/07/03 18:48:48;;;;;;;7.47;3.60;;;35.00;44.50;;;;;;5091696;28;20374;-62
2022/07/03 18:51:19;;;;;;;;;;;34.80;44.70;;;;;;5091861;28;20498;-63
2022/07/03 18:54:03;;;;;;;11.27;3.88;;;34.60;44.70;;;;;;5086449;28;19924;-63
2022/07/03 18:56:40;;;;;;;7.97;3.03;;;34.60;45.10;;;;;;5056568;28;20037;-63
2022/07/03 18:59:24;;;;;;;10.40;3.83;;;34.40;45.10;;;;;;5073711;28;20103;-62
2022/07/03 19:01:50;;;;;;;10.60;3.40;;;34.40;45.30;;;;;;5080016;28;20468;-63
2022/07/03 19:04:34;;;;;;;21.55;4.75;;;34.40;45.80;;;;;;5078296;28;20031;-63
2022/07/03 19:07:07;;;;;;;13.38;4.80;;;34.30;45.50;;;;;;5090575;28;20385;-62
2022/07/03 19:09:42;;;;;;;11.77;4.38;;;34.30;45.50;;;;;;5084479;28;20033;-62
2022/07/03 19:12:12;;;;;;;22.77;5.15;;;34.20;46.10;;;;;;5074986;28;20032;-62
2022/07/03 19:14:40;;;;;;;8.77;3.72;;;34.10;46.60;;;;;;5093806;28;20134;-62
2022/07/03 19:17:10;;;;;;;15.13;5.07;;;34.00;46.80;;;;;;5095739;28;20099;-62
2022/07/03 19:19:36;;;;;;;12.05;4.68;;;33.90;47.20;;;;;;5087669;28;20032;-62
2022/07/03 19:22:03;;;;;;;8.75;4.82;;;33.90;47.00;;;;;;5086139;28;20036;-63
2022/07/03 19:24:29;;;;;;;14.10;5.45;;;33.80;46.90;;;;;;5075092;28;20020;-62
2022/07/03 19:26:56;;;;;;;13.35;5.05;;;;;;;;;;5090169;28;20035;-62
2022/07/03 19:29:24;;;;;;;18.17;6.07;;;33.70;47.50;;;;;;5092001;28;20024;-62
2022/07/03 19:31:50;;;;;;;15.77;5.35;;;33.70;47.10;;;;;;5083899;28;20108;-62
2022/07/03 19:34:16;;;;;;;9.73;4.70;;;33.60;47.40;;;;;;5095097;28;20107;-63
2022/07/03 19:36:41;;;;;;;11.05;4.95;;;33.60;47.40;;;;;;5083703;28;20032;-62
2022/07/03 19:39:08;;;;;;;12.27;4.60;;;33.50;47.20;;;;;;5086058;28;20024;-62
2022/07/03 19:41:34;;;;;;;10.25;4.25;;;33.50;46.90;;;;;;5074502;28;20301;-62
2022/07/03 19:44:02;;;;;;;9.30;4.35;;;33.50;47.00;;;;;;5074659;28;20017;-63
2022/07/03 19:46:28;;;;;;;10.80;4.20;;;33.50;47.00;;;;;;5074672;28;20021;-63
2022/07/03 19:48:54;;;;;;;78.85;8.40;;;33.50;47.00;;;;;;5074734;28;20027;-63
2022/07/03 19:51:22;;;;;;;11.00;5.40;;;33.40;47.10;;;;;;5083471;28;20024;-62
2022/07/03 19:53:47;;;;;;;9.15;5.40;;;33.40;47.20;;;;;;5094637;28;20016;-63
2022/07/03 19:56:14;;;;;;;10.33;5.23;;;33.30;47.50;;;;;;5071879;28;20119;-63
2022/07/03 19:58:40;;;;;;;13.23;6.70;;;33.30;47.50;;;;;;5094368;28;20277;-63
2022/07/03 20:01:06;;;;;;;15.10;6.22;;;33.20;47.50;;;;;;5094438;28;20028;-63
2022/07/03 20:03:32;;;;;;;17.23;6.82;;;33.20;47.50;;;;;;5092638;28;20059;-63
2022/07/03 20:05:59;;;;;;;15.20;6.97;;;33.20;47.50;;;;;;5091310;28;20043;-63
2022/07/03 20:08:25;;;;;;;14.43;8.25;;;33.20;47.70;;;;;;5094562;28;20032;-63
2022/07/03 20:10:51;;;;;;;;;;;33.20;47.60;;;;;;5093695;28;20020;-63
2022/07/03 20:13:16;;;;;;;14.32;8.93;;;33.10;47.50;;;;;;5086655;28;19915;-64
2022/07/03 20:15:43;;;;;;;10.70;7.93;;;33.10;47.60;;;;;;5082528;28;20063;-64
2022/07/03 20:18:09;;;;;;;;;;;33.10;47.90;;;;;;5093087;28;20289;-64
2022/07/03 20:20:35;;;;;;;19.65;8.15;;;33.00;47.90;;;;;;5080648;28;19912;-64
